createdAt,value
2023-04-12T00:01:31.997Z,0.09
2023-04-12T00:04:04.560Z,0.06
2023-04-12T00:06:35.256Z,0.05
2023-04-12T00:09:04.363Z,0.04
2023-04-12T00:11:35.625Z,0.02
2023-04-12T00:14:05.328Z,-0.01
2023-04-12T00:16:37.120Z,-0.06
2023-04-12T00:19:06.932Z,-0.09
2023-04-12T00:21:37.109Z,-0.12
2023-04-12T00:24:07.410Z,-0.13
2023-04-12T00:26:37.760Z,-0.15
2023-04-12T00:29:07.464Z,-0.16
2023-04-12T00:31:37.298Z,-0.18
2023-04-12T00:34:07.182Z,-0.22
2023-04-12T00:36:37.005Z,-0.27
2023-04-12T00:39:10.084Z,-0.29
2023-04-12T00:41:40.052Z,-0.33
2023-04-12T00:44:08.376Z,-0.35
2023-04-12T00:46:38.491Z,-0.37
2023-04-12T00:49:08.679Z,-0.41
2023-04-12T00:51:40.004Z,-0.45
2023-04-12T00:54:09.910Z,-0.49
2023-04-12T00:56:41.492Z,-0.50
2023-04-12T00:59:11.128Z,-0.51
2023-04-12T01:01:41.561Z,-0.53
2023-04-12T01:04:14.173Z,-0.54
2023-04-12T01:07:30.069Z,-0.57
2023-04-12T01:10:37.007Z,-0.57
2023-04-12T01:13:42.304Z,-0.60
2023-04-12T01:16:31.256Z,-0.65
2023-04-12T01:19:36.201Z,-0.69
2023-04-12T01:23:06.231Z,-0.72
2023-04-12T01:26:17.874Z,-0.74
2023-04-12T01:28:54.412Z,-0.76
2023-04-12T01:31:26.905Z,-0.77
2023-04-12T01:33:59.501Z,-0.79
2023-04-12T01:36:31.802Z,-0.80
2023-04-12T01:39:05.094Z,-0.83
2023-04-12T01:41:42.402Z,-0.85
2023-04-12T01:44:18.924Z,-0.88
2023-04-12T01:46:49.815Z,-0.90
2023-04-12T01:49:28.409Z,-0.89
2023-04-12T01:52:31.220Z,-0.90
2023-04-12T01:55:07.390Z,-0.93
2023-04-12T01:57:40.588Z,-0.94
2023-04-12T02:00:12.285Z,-0.99
2023-04-12T02:02:41.334Z,-1.01
2023-04-12T02:05:11.579Z,-1.05
2023-04-12T02:07:42.439Z,-1.08
2023-04-12T02:10:16.079Z,-1.08
2023-04-12T02:12:46.203Z,-1.11
2023-04-12T02:15:16.343Z,-1.15
2023-04-12T02:17:46.509Z,-1.15
2023-04-12T02:20:18.168Z,-1.17
2023-04-12T02:22:48.538Z,-1.17
2023-04-12T02:25:18.817Z,-1.17
2023-04-12T02:27:49.112Z,-1.16
2023-04-12T02:30:19.182Z,-1.05
2023-04-12T02:32:50.292Z,-1.05
2023-04-12T02:35:20.638Z,-1.10
2023-04-12T02:37:51.375Z,-1.15
2023-04-12T02:40:20.558Z,-1.20
2023-04-12T02:42:50.385Z,-1.24
2023-04-12T02:45:20.106Z,-1.30
2023-04-12T02:47:49.861Z,-1.34
2023-04-12T02:50:19.763Z,-1.33
2023-04-12T02:52:49.506Z,-1.33
2023-04-12T02:55:19.438Z,-1.33
2023-04-12T02:57:49.347Z,-1.34
2023-04-12T03:00:20.399Z,-1.34
2023-04-12T03:02:51.809Z,-1.37
2023-04-12T03:05:21.808Z,-1.40
2023-04-12T03:07:49.942Z,-1.42
2023-04-12T03:10:18.334Z,-1.46
2023-04-12T03:12:46.853Z,-1.48
2023-04-12T03:15:15.171Z,-1.53
2023-04-12T03:17:45.139Z,-1.55
2023-04-12T03:20:15.050Z,-1.58
2023-04-12T03:22:43.457Z,-1.59
2023-04-12T03:25:12.835Z,-1.59
2023-04-12T03:27:40.488Z,-1.57
2023-04-12T03:30:14.631Z,-1.56
2023-04-12T03:32:45.344Z,-1.55
2023-04-12T03:35:15.503Z,-1.56
2023-04-12T03:37:45.544Z,-1.62
2023-04-12T03:40:15.194Z,-1.66
2023-04-12T03:42:45.030Z,-1.70
2023-04-12T03:45:14.842Z,-1.71
2023-04-12T03:47:44.505Z,-1.70
2023-04-12T03:50:14.437Z,-1.71
2023-04-12T03:52:44.230Z,-1.71
2023-04-12T03:55:18.222Z,-1.71
2023-04-12T03:57:46.939Z,-1.71
2023-04-12T04:00:17.045Z,-1.71
2023-04-12T04:02:44.801Z,-1.71
2023-04-12T04:05:15.672Z,-1.74
2023-04-12T04:07:45.056Z,-1.74
2023-04-12T04:10:14.767Z,-1.76
2023-04-12T04:12:44.452Z,-1.77
2023-04-12T04:15:15.722Z,-1.77
2023-04-12T04:17:47.639Z,-1.78
2023-04-12T04:20:19.013Z,-1.78
2023-04-12T04:22:49.106Z,-1.79
2023-04-12T04:25:20.435Z,-1.78
2023-04-12T04:27:51.178Z,-1.78
2023-04-12T04:30:23.311Z,-1.75
2023-04-12T04:32:53.626Z,-1.75
2023-04-12T04:35:24.404Z,-1.75
2023-04-12T04:37:55.082Z,-1.76
2023-04-12T04:40:26.491Z,-1.77
2023-04-12T04:42:56.283Z,-1.76
2023-04-12T04:45:26.854Z,-1.73
2023-04-12T04:47:57.620Z,-1.70
2023-04-12T04:50:28.631Z,-1.66
2023-04-12T04:52:58.375Z,-1.65
2023-04-12T04:55:29.800Z,-1.62
2023-04-12T04:57:59.856Z,-1.60
2023-04-12T05:00:29.573Z,-1.58
2023-04-12T05:02:59.573Z,-1.54
2023-04-12T05:05:30.522Z,-1.53
2023-04-12T05:08:00.838Z,-1.46
2023-04-12T05:10:30.437Z,-1.30
2023-04-12T05:13:00.142Z,-1.17
2023-04-12T05:15:32.146Z,-1.02
2023-04-12T05:18:02.745Z,-0.90
2023-04-12T05:20:32.913Z,-0.77
2023-04-12T05:23:01.464Z,-0.57
2023-04-12T05:25:29.870Z,-0.44
2023-04-12T05:28:01.338Z,-0.22
2023-04-12T05:30:30.582Z,-0.01
2023-04-12T05:33:01.353Z,0.14
2023-04-12T05:35:29.524Z,0.34
2023-04-12T05:37:57.845Z,0.49
2023-04-12T05:40:26.287Z,0.60
2023-04-12T05:42:59.785Z,0.76
2023-04-12T05:45:28.819Z,1.02
2023-04-12T05:47:58.878Z,1.26
2023-04-12T05:50:26.424Z,1.40
2023-04-12T05:52:56.649Z,1.49
2023-04-12T05:55:26.549Z,1.70
2023-04-12T05:57:56.309Z,1.83
2023-04-12T06:00:26.548Z,2.07
2023-04-12T06:03:01.200Z,2.21
2023-04-12T06:05:29.080Z,2.43
2023-04-12T06:08:00.201Z,2.71
2023-04-12T06:10:30.561Z,3.10
2023-04-12T06:13:00.145Z,3.30
2023-04-12T06:15:32.160Z,3.59
2023-04-12T06:18:02.463Z,3.76
2023-04-12T06:20:32.637Z,4.03
2023-04-12T06:23:02.199Z,4.25
2023-04-12T06:25:33.148Z,4.29
2023-04-12T06:28:02.346Z,4.68
2023-04-12T06:30:30.900Z,4.89
2023-04-12T06:32:59.242Z,5.18
2023-04-12T06:35:27.510Z,5.37
2023-04-12T06:37:56.028Z,5.54
2023-04-12T06:40:24.537Z,5.82
2023-04-12T06:42:53.024Z,5.88
2023-04-12T06:45:21.264Z,6.19
2023-04-12T06:47:49.756Z,6.66
2023-04-12T06:50:18.703Z,6.96
2023-04-12T06:52:48.531Z,7.13
2023-04-12T06:55:18.317Z,7.19
2023-04-12T06:57:46.411Z,7.71
2023-04-12T07:00:15.468Z,8.05
2023-04-12T07:02:43.313Z,7.87
2023-04-12T07:05:11.478Z,8.22
2023-04-12T07:07:40.119Z,8.52
2023-04-12T07:10:09.146Z,8.59
2023-04-12T07:12:37.077Z,8.61
2023-04-12T07:15:06.174Z,8.98
2023-04-12T07:17:34.050Z,9.28
2023-04-12T07:20:02.459Z,9.55
2023-04-12T07:22:30.766Z,9.39
2023-04-12T07:24:59.256Z,9.57
2023-04-12T07:27:27.475Z,9.69
2023-04-12T07:29:56.153Z,10.28
2023-04-12T07:32:24.314Z,10.09
2023-04-12T07:34:53.238Z,10.44
2023-04-12T07:37:21.060Z,10.54
2023-04-12T07:39:49.459Z,11.08
2023-04-12T07:42:18.078Z,11.20
2023-04-12T07:44:46.292Z,11.65
2023-04-12T07:47:14.727Z,11.43
2023-04-12T07:49:43.123Z,11.43
2023-04-12T07:52:11.618Z,11.65
2023-04-12T07:54:40.234Z,11.31
2023-04-12T07:59:36.895Z,12.30
2023-04-12T08:02:06.380Z,12.02
2023-04-12T08:04:33.861Z,12.15
2023-04-12T08:07:02.098Z,12.42
2023-04-12T08:09:31.001Z,12.51
2023-04-12T08:11:58.846Z,12.25
2023-04-12T08:14:27.334Z,12.31
2023-04-12T08:16:55.724Z,12.86
2023-04-12T08:19:24.671Z,12.55
2023-04-12T08:21:53.341Z,12.93
2023-04-12T08:24:21.388Z,12.75
2023-04-12T08:26:51.352Z,13.11
2023-04-12T08:29:21.447Z,13.13
2023-04-12T08:31:52.026Z,13.44
2023-04-12T08:34:22.641Z,13.64
2023-04-12T08:36:52.716Z,13.31
2023-04-12T08:39:23.389Z,13.25
2023-04-12T08:41:57.514Z,13.52
2023-04-12T08:44:39.731Z,13.94
2023-04-12T08:47:11.870Z,13.82
2023-04-12T08:49:41.089Z,13.94
2023-04-12T08:52:11.464Z,13.70
2023-04-12T08:54:41.819Z,13.47
2023-04-12T08:57:15.648Z,13.79
2023-04-12T08:59:49.303Z,13.66
2023-04-12T09:02:17.453Z,14.18
2023-04-12T09:04:52.632Z,14.76
2023-04-12T09:07:28.257Z,14.97
2023-04-12T09:10:04.401Z,14.70
2023-04-12T09:12:34.799Z,15.03
2023-04-12T09:15:15.788Z,15.01
2023-04-12T09:17:44.698Z,14.80
2023-04-12T09:20:18.083Z,14.68
2023-04-12T09:22:49.027Z,14.72
2023-04-12T09:25:18.526Z,14.48
2023-04-12T09:27:54.685Z,14.78
2023-04-12T09:30:22.617Z,14.99
2023-04-12T09:32:51.267Z,15.01
2023-04-12T09:35:33.173Z,15.03
2023-04-12T09:38:11.284Z,15.11
2023-04-12T09:40:41.939Z,15.13
2023-04-12T09:43:12.176Z,14.97
2023-04-12T09:45:42.435Z,15.11
2023-04-12T09:48:26.479Z,15.42
2023-04-12T09:51:01.544Z,15.11
2023-04-12T09:53:36.439Z,14.59
2023-04-12T09:56:09.261Z,15.06
2023-04-12T09:58:41.331Z,15.37
2023-04-12T10:01:11.349Z,15.55
2023-04-12T10:03:41.914Z,16.08
2023-04-12T10:06:13.791Z,16.11
2023-04-12T10:08:44.554Z,15.76
2023-04-12T10:11:14.636Z,15.46
2023-04-12T10:13:45.515Z,15.78
2023-04-12T10:16:17.138Z,15.42
2023-04-12T10:18:48.461Z,15.52
2023-04-12T10:21:18.974Z,15.92
2023-04-12T10:23:49.329Z,15.62
2023-04-12T10:26:19.397Z,15.52
2023-04-12T10:29:47.994Z,16.08
2023-04-12T10:32:25.811Z,16.54
2023-04-12T10:34:59.136Z,16.53
2023-04-12T10:38:04.485Z,16.76
2023-04-12T10:40:35.740Z,16.35
2023-04-12T10:43:23.440Z,16.56
2023-04-12T10:45:53.557Z,16.72
2023-04-12T10:48:52.078Z,16.26
2023-04-12T10:51:26.032Z,16.39
2023-04-12T10:54:08.377Z,16.78
2023-04-12T10:56:47.984Z,16.98
2023-04-12T10:59:21.078Z,16.54
2023-04-12T11:02:25.625Z,16.78
2023-04-12T11:05:14.758Z,16.57
2023-04-12T11:07:46.314Z,16.48
2023-04-12T11:10:21.907Z,16.25
2023-04-12T11:12:57.483Z,16.41
2023-04-12T11:15:29.012Z,16.62
2023-04-12T11:18:01.175Z,16.81
2023-04-12T11:20:33.732Z,16.69
2023-04-12T11:23:06.019Z,16.16
2023-04-12T11:25:37.976Z,16.26
2023-04-12T11:28:21.223Z,16.37
2023-04-12T11:30:57.552Z,16.56
2023-04-12T11:33:40.401Z,16.41
2023-04-12T11:36:13.437Z,16.56
2023-04-12T11:38:46.447Z,16.27
2023-04-12T11:41:18.641Z,16.27
2023-04-12T11:43:49.649Z,16.46
2023-04-12T11:46:19.902Z,16.13
2023-04-12T11:48:48.592Z,16.16
2023-04-12T11:51:31.657Z,16.80
2023-04-12T11:54:02.717Z,16.72
2023-04-12T11:56:33.025Z,16.34
2023-04-12T11:59:04.144Z,16.80
2023-04-12T12:01:38.724Z,16.71
2023-04-12T12:04:09.475Z,16.54
2023-04-12T12:06:40.722Z,16.20
2023-04-12T12:09:13.472Z,16.03
2023-04-12T12:11:54.132Z,16.07
2023-04-12T12:14:25.329Z,16.32
2023-04-12T12:16:59.990Z,16.40
2023-04-12T12:19:33.590Z,16.02
2023-04-12T12:22:22.366Z,16.23
2023-04-12T12:24:58.733Z,16.49
2023-04-12T12:27:38.708Z,16.22
2023-04-12T12:30:11.542Z,16.09
2023-04-12T12:32:40.650Z,15.91
2023-04-12T12:35:14.133Z,15.51
2023-04-12T12:37:58.911Z,15.59
2023-04-12T12:40:32.848Z,15.32
2023-04-12T12:43:04.012Z,15.23
2023-04-12T12:45:34.722Z,15.42
2023-04-12T12:48:05.537Z,15.68
2023-04-12T12:50:36.594Z,15.91
2023-04-12T12:53:06.540Z,15.67
2023-04-12T12:55:36.328Z,15.69
2023-04-12T12:58:07.988Z,15.55
2023-04-12T13:00:38.656Z,15.72
2023-04-12T13:03:08.734Z,16.01
2023-04-12T13:05:38.814Z,16.34
2023-04-12T13:08:08.584Z,16.37
2023-04-12T13:10:38.411Z,16.46
2023-04-12T13:13:08.975Z,16.86
2023-04-12T13:15:38.416Z,16.58
2023-04-12T13:18:08.249Z,16.59
2023-04-12T13:20:38.214Z,16.54
2023-04-12T13:23:08.143Z,16.76
2023-04-12T13:25:39.104Z,16.41
2023-04-12T13:28:09.861Z,16.06
2023-04-12T13:30:39.052Z,16.08
2023-04-12T13:33:10.591Z,16.08
2023-04-12T13:35:39.572Z,16.14
2023-04-12T13:38:09.295Z,16.11
2023-04-12T13:40:39.159Z,16.48
2023-04-12T13:43:08.882Z,16.86
2023-04-12T13:45:36.268Z,16.85
2023-04-12T13:48:04.693Z,16.49
2023-04-12T13:50:32.964Z,16.23
2023-04-12T13:53:01.657Z,16.26
2023-04-12T13:55:29.880Z,16.15
2023-04-12T13:57:58.243Z,15.90
2023-04-12T14:00:27.602Z,15.42
2023-04-12T14:02:55.284Z,15.05
2023-04-12T14:05:23.593Z,15.01
2023-04-12T14:07:52.745Z,14.68
2023-04-12T14:10:20.431Z,14.65
2023-04-12T14:12:49.042Z,14.46
2023-04-12T14:15:17.849Z,14.37
2023-04-12T14:17:51.882Z,14.37
2023-04-12T14:20:24.072Z,14.19
2023-04-12T14:22:54.127Z,14.23
2023-04-12T14:25:24.032Z,14.12
2023-04-12T14:27:58.410Z,14.19
2023-04-12T14:30:28.949Z,14.27
2023-04-12T14:32:59.254Z,14.15
2023-04-12T14:35:29.599Z,14.01
2023-04-12T14:38:03.095Z,14.04
2023-04-12T14:40:33.280Z,13.85
2023-04-12T14:43:03.721Z,13.87
2023-04-12T14:45:33.935Z,13.82
2023-04-12T14:48:04.275Z,13.42
2023-04-12T14:50:37.281Z,13.47
2023-04-12T14:53:09.786Z,13.28
2023-04-12T14:55:46.839Z,13.28
2023-04-12T14:58:17.196Z,13.16
2023-04-12T15:00:49.298Z,13.12
2023-04-12T15:03:21.253Z,12.62
2023-04-12T15:05:51.506Z,12.24
2023-04-12T15:08:23.463Z,12.05
2023-04-12T15:10:53.562Z,11.88
2023-04-12T15:13:29.883Z,11.84
2023-04-12T15:16:03.062Z,11.61
2023-04-12T15:18:33.233Z,11.63
2023-04-12T15:21:06.242Z,11.35
2023-04-12T15:23:37.936Z,11.10
2023-04-12T15:26:11.674Z,11.07
2023-04-12T15:28:42.640Z,10.98
2023-04-12T15:31:13.786Z,11.00
2023-04-12T15:33:44.338Z,10.84
2023-04-12T15:36:13.146Z,10.67
2023-04-12T15:38:42.764Z,10.73
2023-04-12T15:41:12.305Z,10.57
2023-04-12T15:43:42.215Z,10.46
2023-04-12T15:46:14.625Z,10.58
2023-04-12T15:48:44.788Z,10.68
2023-04-12T15:51:15.038Z,10.78
2023-04-12T15:53:45.219Z,10.80
2023-04-12T15:56:20.014Z,10.75
2023-04-12T15:58:58.993Z,10.71
2023-04-12T16:01:29.659Z,10.74
2023-04-12T16:04:00.238Z,10.68
2023-04-12T16:06:34.746Z,10.91
2023-04-12T16:09:02.860Z,10.83
2023-04-12T16:11:34.093Z,10.82
2023-04-12T16:14:04.103Z,10.76
2023-04-12T16:16:34.097Z,10.77
2023-04-12T16:19:04.686Z,10.93
2023-04-12T16:21:34.471Z,10.73
2023-04-12T16:24:05.087Z,10.50
2023-04-12T16:26:35.581Z,10.55
2023-04-12T16:29:05.538Z,10.53
2023-04-12T16:31:35.936Z,10.39
2023-04-12T16:34:04.147Z,10.21
2023-04-12T16:36:32.563Z,10.40
2023-04-12T16:39:03.238Z,10.36
2023-04-12T16:41:32.577Z,10.13
2023-04-12T16:44:03.522Z,10.02
2023-04-12T16:46:35.511Z,10.08
2023-04-12T16:49:06.146Z,10.10
2023-04-12T16:51:37.230Z,9.91
2023-04-12T16:54:07.061Z,9.74
2023-04-12T16:56:34.323Z,9.73
2023-04-12T16:59:05.172Z,9.67
2023-04-12T17:01:35.130Z,9.52
2023-04-12T17:04:04.438Z,9.63
2023-04-12T17:06:34.657Z,9.80
2023-04-12T17:09:05.140Z,9.67
2023-04-12T17:11:36.295Z,9.50
2023-04-12T17:14:05.748Z,9.44
2023-04-12T17:16:38.260Z,9.49
2023-04-12T17:19:10.591Z,9.42
2023-04-12T17:21:42.697Z,9.36
2023-04-12T17:24:12.497Z,9.40
2023-04-12T17:26:42.743Z,9.38
2023-04-12T17:29:13.674Z,9.36
2023-04-12T17:31:45.927Z,9.40
2023-04-12T17:34:15.151Z,9.30
2023-04-12T17:36:45.330Z,9.32
2023-04-12T17:39:15.449Z,9.26
2023-04-12T17:41:47.073Z,9.25
2023-04-12T17:44:18.018Z,9.13
2023-04-12T17:46:46.732Z,9.13
2023-04-12T17:49:16.884Z,9.12
2023-04-12T17:51:50.000Z,9.17
2023-04-12T17:54:17.321Z,9.11
2023-04-12T17:56:54.175Z,9.12
2023-04-12T17:59:26.073Z,9.35
2023-04-12T18:01:57.091Z,9.32
2023-04-12T18:04:29.402Z,9.33
2023-04-12T18:06:59.664Z,9.36
2023-04-12T18:09:30.060Z,9.19
2023-04-12T18:11:57.762Z,9.13
2023-04-12T18:14:27.555Z,9.12
2023-04-12T18:16:55.962Z,9.09
2023-04-12T18:19:25.889Z,9.18
2023-04-12T18:21:56.077Z,9.29
2023-04-12T18:24:27.074Z,9.34
2023-04-12T18:27:02.148Z,9.32
2023-04-12T18:29:33.093Z,9.40
2023-04-12T18:32:04.398Z,9.47
2023-04-12T18:34:34.518Z,9.40
2023-04-12T18:37:06.290Z,9.28
2023-04-12T18:39:36.774Z,9.38
2023-04-12T18:42:07.549Z,9.25
2023-04-12T18:44:38.103Z,9.19
2023-04-12T18:47:08.782Z,9.40
2023-04-12T18:49:39.179Z,9.33
2023-04-12T18:52:09.526Z,9.38
2023-04-12T18:54:39.653Z,9.13
2023-04-12T18:57:08.539Z,8.97
2023-04-12T18:59:37.352Z,8.88
2023-04-12T19:02:05.847Z,9.03
2023-04-12T19:04:34.244Z,9.12
2023-04-12T19:07:02.538Z,9.06
2023-04-12T19:09:35.578Z,9.01
2023-04-12T19:12:08.228Z,9.09
2023-04-12T19:14:38.632Z,8.95
2023-04-12T19:17:09.636Z,8.93
2023-04-12T19:19:39.861Z,8.85
2023-04-12T19:22:10.078Z,9.01
2023-04-12T19:24:40.188Z,9.12
2023-04-12T19:27:09.394Z,9.19
2023-04-12T19:29:37.005Z,9.11
2023-04-12T19:32:07.294Z,9.11
2023-04-12T19:34:37.100Z,8.93
2023-04-12T19:37:06.021Z,8.83
2023-04-12T19:39:37.521Z,8.75
2023-04-12T19:42:15.599Z,8.78
2023-04-12T19:44:46.061Z,8.73
2023-04-12T19:47:16.657Z,8.65
2023-04-12T19:49:49.710Z,8.65
2023-04-12T19:52:21.997Z,8.84
2023-04-12T19:54:54.189Z,8.84
2023-04-12T19:57:25.302Z,8.87
2023-04-12T19:59:58.591Z,8.75
2023-04-12T20:02:29.054Z,8.84
2023-04-12T20:04:59.298Z,8.76
2023-04-12T20:07:29.816Z,8.85
2023-04-12T20:10:03.713Z,8.74
2023-04-12T20:12:38.153Z,9.02
2023-04-12T20:15:11.970Z,8.85
2023-04-12T20:17:44.169Z,8.71
2023-04-12T20:20:14.411Z,8.99
2023-04-12T20:22:52.263Z,8.72
2023-04-12T20:25:22.457Z,8.60
2023-04-12T20:27:55.534Z,8.71
2023-04-12T20:30:26.315Z,8.69
2023-04-12T20:32:56.878Z,8.63
2023-04-12T20:35:28.119Z,8.58
2023-04-12T20:37:58.256Z,8.44
2023-04-12T20:40:30.019Z,8.48
2023-04-12T20:43:00.507Z,8.41
2023-04-12T20:45:30.915Z,8.41
2023-04-12T20:48:01.322Z,8.38
2023-04-12T20:50:31.488Z,8.19
2023-04-12T20:53:01.596Z,8.21
2023-04-12T20:55:35.123Z,8.18
2023-04-12T20:59:30.460Z,8.08
2023-04-12T21:02:00.785Z,8.05
2023-04-12T21:04:36.457Z,7.99
2023-04-12T21:07:06.153Z,7.99
2023-04-12T21:09:34.162Z,8.14
2023-04-12T21:12:08.967Z,8.14
2023-04-12T21:14:37.939Z,8.07
2023-04-12T21:17:08.174Z,8.09
2023-04-12T21:19:41.879Z,8.07
2023-04-12T21:22:12.381Z,7.98
2023-04-12T21:24:42.114Z,8.06
2023-04-12T21:27:10.572Z,7.92
2023-04-12T21:29:41.634Z,7.88
2023-04-12T21:32:10.370Z,7.94
2023-04-12T21:34:39.389Z,8.06
2023-04-12T21:37:07.170Z,7.96
2023-04-12T21:39:35.665Z,7.96
2023-04-12T21:42:04.713Z,8.12
2023-04-12T21:44:32.353Z,8.05
2023-04-12T21:47:00.821Z,8.03
2023-04-12T21:49:30.394Z,8.11
2023-04-12T21:51:59.319Z,8.06
2023-04-12T21:54:30.626Z,8.00
2023-04-12T21:57:01.603Z,7.90
2023-04-12T21:59:30.477Z,7.86
2023-04-12T22:02:00.336Z,7.94
2023-04-12T22:04:30.118Z,8.07
2023-04-12T22:07:02.295Z,7.85
2023-04-12T22:09:33.759Z,7.88
2023-04-12T22:12:08.201Z,7.77
2023-04-12T22:14:46.674Z,7.78
2023-04-12T22:17:21.684Z,7.74
2023-04-12T22:19:56.674Z,7.74
2023-04-12T22:22:29.310Z,7.73
2023-04-12T22:25:00.543Z,7.83
2023-04-12T22:27:31.494Z,8.16
2023-04-12T22:30:00.880Z,8.01
2023-04-12T22:32:33.097Z,7.91
2023-04-12T22:35:08.256Z,7.85
2023-04-12T22:37:41.432Z,7.80
2023-04-12T22:40:13.770Z,7.97
2023-04-12T22:42:46.959Z,7.99
2023-04-12T22:45:18.242Z,8.05
2023-04-12T22:47:47.912Z,7.98
2023-04-12T22:50:18.117Z,7.94
2023-04-12T22:52:50.179Z,7.87
2023-04-12T22:55:21.992Z,7.77
2023-04-12T22:57:53.264Z,7.68
2023-04-12T23:00:25.278Z,7.60
2023-04-12T23:02:56.319Z,7.53
2023-04-12T23:05:26.511Z,7.63
2023-04-12T23:07:56.648Z,7.62
2023-04-12T23:10:26.749Z,7.68
2023-04-12T23:12:56.732Z,7.56
2023-04-12T23:15:26.561Z,7.54
2023-04-12T23:17:56.375Z,7.64
2023-04-12T23:20:26.271Z,7.55
2023-04-12T23:22:59.768Z,7.38
2023-04-12T23:25:41.975Z,7.24
2023-04-12T23:28:16.032Z,7.17
2023-04-12T23:30:49.091Z,7.08
2023-04-12T23:33:22.193Z,7.02
2023-04-12T23:36:12.374Z,6.98
2023-04-12T23:38:44.524Z,6.93
2023-04-12T23:41:14.624Z,6.89
2023-04-12T23:43:44.708Z,7.01
2023-04-12T23:46:14.830Z,6.93
2023-04-12T23:48:45.020Z,6.85
2023-04-12T23:51:16.829Z,6.78
2023-04-12T23:53:46.967Z,6.80
2023-04-12T23:56:15.411Z,6.88
2023-04-12T23:58:45.766Z,6.86
